createdAt,value
2022-09-28T00:00:30.533Z,9.719810
2022-09-28T00:01:30.557Z,9.719786
2022-09-28T00:02:30.604Z,9.719748
2022-09-28T00:03:30.509Z,9.719569
2022-09-28T00:04:30.521Z,9.719460
2022-09-28T00:05:30.482Z,9.719543
2022-09-28T00:06:30.490Z,9.719326
2022-09-28T00:07:30.475Z,9.719245
2022-09-28T00:08:30.456Z,9.719281
2022-09-28T00:09:30.434Z,9.719236
2022-09-28T00:10:30.467Z,9.719384
2022-09-28T00:11:30.425Z,9.719459
2022-09-28T00:12:30.414Z,9.719324
2022-09-28T00:13:30.427Z,9.719454
2022-09-28T00:14:30.402Z,9.719555
2022-09-28T00:15:30.392Z,9.719428
2022-09-28T00:16:30.433Z,9.719279
2022-09-28T00:17:30.369Z,9.719296
2022-09-28T00:18:30.397Z,9.719255
2022-09-28T00:19:30.346Z,9.719212
2022-09-28T00:20:30.336Z,9.719234
2022-09-28T00:21:30.327Z,9.719278
2022-09-28T00:22:30.317Z,9.719286
2022-09-28T00:23:30.306Z,9.719306
2022-09-28T00:24:30.320Z,9.719312
2022-09-28T00:25:30.291Z,9.719318
2022-09-28T00:26:30.275Z,9.719375
2022-09-28T00:27:31.274Z,9.719339
2022-09-28T00:28:30.265Z,9.719317
2022-09-28T00:29:30.264Z,9.719326
2022-09-28T00:30:30.250Z,9.719326
2022-09-28T00:31:30.324Z,9.719297
2022-09-28T00:32:30.224Z,9.719315
2022-09-28T00:33:30.215Z,9.719261
2022-09-28T00:34:30.222Z,9.719246
2022-09-28T00:35:30.197Z,9.719250
2022-09-28T00:36:30.187Z,9.719274
2022-09-28T00:37:30.189Z,9.719238
2022-09-28T00:38:30.178Z,9.719221
2022-09-28T00:39:30.153Z,9.719323
2022-09-28T00:40:30.228Z,9.719330
2022-09-28T00:41:30.128Z,9.719295
2022-09-28T00:42:30.140Z,9.719224
2022-09-28T00:43:30.112Z,9.719280
2022-09-28T00:44:30.104Z,9.719256
2022-09-28T00:45:30.152Z,9.719202
2022-09-28T00:46:30.086Z,9.719244
2022-09-28T00:47:30.073Z,9.719239
2022-09-28T00:48:30.089Z,9.719216
2022-09-28T00:49:30.077Z,9.719235
2022-09-28T00:50:30.045Z,9.719319
2022-09-28T00:51:30.035Z,9.719313
2022-09-28T00:52:30.055Z,9.719299
2022-09-28T00:53:30.020Z,9.719203
2022-09-28T00:54:30.011Z,9.719227
2022-09-28T00:55:30.011Z,9.719163
2022-09-28T00:56:29.997Z,9.719104
2022-09-28T00:57:29.969Z,9.719242
2022-09-28T00:58:29.959Z,9.719255
2022-09-28T00:59:29.957Z,9.719178
2022-09-28T01:00:29.947Z,9.718855
2022-09-28T01:01:29.946Z,9.718866
2022-09-28T01:02:29.977Z,9.718844
2022-09-28T01:03:29.916Z,9.718848
2022-09-28T01:04:30.170Z,9.719023
2022-09-28T01:05:30.907Z,9.719211
2022-09-28T01:06:29.892Z,9.719258
2022-09-28T01:07:29.873Z,9.719291
2022-09-28T01:08:29.889Z,9.719267
2022-09-28T01:09:29.858Z,9.719224
2022-09-28T01:10:29.850Z,9.719282
2022-09-28T01:11:29.826Z,9.719247
2022-09-28T01:12:29.821Z,9.719290
2022-09-28T01:13:29.825Z,9.719358
2022-09-28T01:14:29.809Z,9.719205
2022-09-28T01:15:29.781Z,9.719193
2022-09-28T01:16:29.860Z,9.719079
2022-09-28T01:17:29.800Z,9.719214
2022-09-28T01:18:29.760Z,9.719151
2022-09-28T01:19:29.761Z,9.719117
2022-09-28T01:20:29.758Z,9.719090
2022-09-28T01:21:29.731Z,9.719110
2022-09-28T01:22:29.712Z,9.719199
2022-09-28T01:23:29.732Z,9.719258
2022-09-28T01:24:29.695Z,9.719245
2022-09-28T01:25:29.705Z,9.719194
2022-09-28T01:26:29.682Z,9.719133
2022-09-28T01:27:29.705Z,9.719175
2022-09-28T01:28:29.677Z,9.719147
2022-09-28T01:29:29.664Z,9.719167
2022-09-28T01:30:29.644Z,9.719159
2022-09-28T01:31:29.690Z,9.719191
2022-09-28T01:32:29.639Z,9.719181
2022-09-28T01:33:29.617Z,9.719153
2022-09-28T01:34:29.601Z,9.719188
2022-09-28T01:35:29.595Z,9.719192
2022-09-28T01:36:29.588Z,9.719175
2022-09-28T01:37:29.587Z,9.719168
2022-09-28T01:38:29.570Z,9.719181
2022-09-28T01:39:29.564Z,9.719094
2022-09-28T01:40:29.597Z,9.719193
2022-09-28T01:41:29.544Z,9.719131
2022-09-28T01:42:29.539Z,9.719202
2022-09-28T01:43:29.524Z,9.719213
2022-09-28T01:44:29.521Z,9.719150
2022-09-28T01:45:29.593Z,9.719182
2022-09-28T01:46:29.479Z,9.719202
2022-09-28T01:47:29.475Z,9.719221
2022-09-28T01:48:29.466Z,9.719213
2022-09-28T01:49:29.459Z,9.719240
2022-09-28T01:50:29.468Z,9.719137
2022-09-28T01:51:29.455Z,9.719182
2022-09-28T01:52:29.432Z,9.719296
2022-09-28T01:53:29.426Z,9.719315
2022-09-28T01:54:29.423Z,9.719329
2022-09-28T01:55:29.434Z,9.719220
2022-09-28T01:56:29.401Z,9.719260
2022-09-28T01:57:29.389Z,9.719280
2022-09-28T01:58:29.394Z,9.719254
2022-09-28T01:59:29.373Z,9.719269
2022-09-28T02:00:29.497Z,9.719246
2022-09-28T02:01:29.356Z,9.719233
2022-09-28T02:02:29.411Z,9.719204
2022-09-28T02:03:29.389Z,9.719211
2022-09-28T02:04:29.328Z,9.719262
2022-09-28T02:05:29.309Z,9.719209
2022-09-28T02:06:29.296Z,9.719198
2022-09-28T02:08:01.191Z,9.719228
2022-09-28T02:08:29.290Z,9.719213
2022-09-28T02:09:33.601Z,9.719175
2022-09-28T02:10:30.251Z,9.719218
2022-09-28T02:11:29.259Z,9.719217
2022-09-28T02:12:29.225Z,9.719284
2022-09-28T02:13:29.231Z,9.719297
2022-09-28T02:14:29.230Z,9.719256
2022-09-28T02:15:29.198Z,9.719213
2022-09-28T02:16:29.260Z,9.719265
2022-09-28T02:17:29.184Z,9.719249
2022-09-28T02:18:29.188Z,9.719198
2022-09-28T02:19:29.171Z,9.719262
2022-09-28T02:20:29.161Z,9.719238
2022-09-28T02:21:29.182Z,9.719229
2022-09-28T02:22:29.145Z,9.719051
2022-09-28T02:23:29.131Z,9.719033
2022-09-28T02:24:29.107Z,9.719310
2022-09-28T02:25:29.102Z,9.719174
2022-09-28T02:26:29.090Z,9.719088
2022-09-28T02:27:29.120Z,9.719137
2022-09-28T02:28:29.073Z,9.719273
2022-09-28T02:29:29.066Z,9.719160
2022-09-28T02:30:29.058Z,9.719060
2022-09-28T02:31:29.070Z,9.719117
2022-09-28T02:32:29.054Z,9.718846
2022-09-28T02:33:29.031Z,9.719101
2022-09-28T02:34:29.045Z,9.719122
2022-09-28T02:35:29.015Z,9.719176
2022-09-28T02:36:29.008Z,9.719019
2022-09-28T02:37:28.982Z,9.719363
2022-09-28T02:38:28.991Z,9.719385
2022-09-28T02:39:28.983Z,9.719404
2022-09-28T02:40:29.015Z,9.719396
2022-09-28T02:41:28.961Z,9.719460
2022-09-28T02:42:28.960Z,9.719458
2022-09-28T02:43:28.936Z,9.719355
2022-09-28T02:44:28.920Z,9.719254
2022-09-28T02:45:28.977Z,9.719169
2022-09-28T02:46:28.918Z,9.718946
2022-09-28T02:47:28.893Z,9.718997
2022-09-28T02:48:43.051Z,9.719130
2022-09-28T02:49:31.064Z,9.719184
2022-09-28T02:50:28.876Z,9.719075
2022-09-28T02:51:28.874Z,9.719120
2022-09-28T02:52:28.841Z,9.719070
2022-09-28T02:53:28.828Z,9.719096
2022-09-28T02:54:28.826Z,9.719101
2022-09-28T02:55:28.831Z,9.719164
2022-09-28T02:56:28.822Z,9.719135
2022-09-28T02:57:28.803Z,9.719034
2022-09-28T02:58:28.790Z,9.719142
2022-09-28T02:59:28.772Z,9.718991
2022-09-28T03:00:28.792Z,9.719095
2022-09-28T03:01:28.750Z,9.719031
2022-09-28T03:02:28.814Z,9.719096
2022-09-28T03:03:28.736Z,9.719086
2022-09-28T03:04:28.734Z,9.719175
2022-09-28T03:05:28.732Z,9.718966
2022-09-28T03:06:28.719Z,9.719024
2022-09-28T03:07:28.699Z,9.719123
2022-09-28T03:08:28.723Z,9.719117
2022-09-28T03:09:28.687Z,9.719122
2022-09-28T03:10:28.696Z,9.719131
2022-09-28T03:11:28.666Z,9.719169
2022-09-28T03:12:28.666Z,9.719209
2022-09-28T03:13:28.647Z,9.719048
2022-09-28T03:14:28.645Z,9.719004
2022-09-28T03:15:28.637Z,9.719098
2022-09-28T03:16:28.643Z,9.719101
2022-09-28T03:17:28.607Z,9.719077
2022-09-28T03:18:28.608Z,9.719002
2022-09-28T03:19:28.585Z,9.719093
2022-09-28T03:20:28.571Z,9.719026
2022-09-28T03:21:28.582Z,9.719140
2022-09-28T03:22:28.552Z,9.719191
2022-09-28T03:23:28.547Z,9.719124
2022-09-28T03:24:28.536Z,9.719139
2022-09-28T03:25:28.546Z,9.719097
2022-09-28T03:26:28.532Z,9.719219
2022-09-28T03:27:28.512Z,9.719151
2022-09-28T03:28:28.501Z,9.719183
2022-09-28T03:29:28.491Z,9.719049
2022-09-28T03:30:28.497Z,9.719129
2022-09-28T03:31:28.523Z,9.719194
2022-09-28T03:32:28.481Z,9.719221
2022-09-28T03:33:28.466Z,9.719171
2022-09-28T03:34:28.439Z,9.719181
2022-09-28T03:35:28.442Z,9.719129
2022-09-28T03:36:28.429Z,9.719059
2022-09-28T03:37:28.414Z,9.718943
2022-09-28T03:38:28.420Z,9.719071
2022-09-28T03:39:28.394Z,9.719241
2022-09-28T03:40:28.448Z,9.719182
2022-09-28T03:41:28.373Z,9.719118
2022-09-28T03:42:28.371Z,9.719074
2022-09-28T03:43:28.376Z,9.719131
2022-09-28T03:44:28.351Z,9.719183
2022-09-28T03:45:28.440Z,9.719166
2022-09-28T03:46:28.324Z,9.719012
2022-09-28T03:47:28.317Z,9.719099
2022-09-28T03:48:32.155Z,9.719110
2022-09-28T03:49:29.294Z,9.719134
2022-09-28T03:50:28.301Z,9.719115
2022-09-28T03:51:28.297Z,9.719157
2022-09-28T03:52:28.274Z,9.719120
2022-09-28T03:53:28.281Z,9.719196
2022-09-28T03:54:28.255Z,9.719088
2022-09-28T03:55:28.235Z,9.719184
2022-09-28T03:56:28.245Z,9.719140
2022-09-28T03:57:28.247Z,9.719197
2022-09-28T03:58:28.236Z,9.719178
2022-09-28T03:59:28.205Z,9.719136
2022-09-28T04:00:28.277Z,9.719131
2022-09-28T04:01:28.216Z,9.719172
2022-09-28T04:02:28.207Z,9.719137
2022-09-28T04:03:28.203Z,9.719135
2022-09-28T04:04:28.173Z,9.719162
2022-09-28T04:05:28.150Z,9.719200
2022-09-28T04:06:28.134Z,9.719237
2022-09-28T04:07:31.047Z,9.719200
2022-09-28T04:08:29.110Z,9.719225
2022-09-28T04:09:28.121Z,9.719268
2022-09-28T04:10:28.086Z,9.719218
2022-09-28T04:11:34.946Z,9.719188
2022-09-28T04:12:29.099Z,9.719107
2022-09-28T04:13:28.060Z,9.719218
2022-09-28T04:14:28.053Z,9.719235
2022-09-28T04:15:28.047Z,9.719255
2022-09-28T04:16:28.067Z,9.719342
2022-09-28T04:17:28.050Z,9.719229
2022-09-28T04:18:28.016Z,9.719166
2022-09-28T04:19:28.000Z,9.719200
2022-09-28T04:20:28.016Z,9.719261
2022-09-28T04:21:27.999Z,9.719188
2022-09-28T04:22:28.006Z,9.719190
2022-09-28T04:23:27.974Z,9.719175
2022-09-28T04:24:27.949Z,9.719193
2022-09-28T04:25:27.955Z,9.719182
2022-09-28T04:26:27.938Z,9.719142
2022-09-28T04:27:27.946Z,9.719171
2022-09-28T04:28:27.934Z,9.719151
2022-09-28T04:29:27.908Z,9.719127
2022-09-28T04:30:27.888Z,9.718945
2022-09-28T04:31:27.915Z,9.719081
2022-09-28T04:32:27.885Z,9.719091
2022-09-28T04:33:27.875Z,9.719229
2022-09-28T04:34:31.875Z,9.719254
2022-09-28T04:35:27.847Z,9.719246
2022-09-28T04:36:27.838Z,9.719037
2022-09-28T04:37:27.849Z,9.719031
2022-09-28T04:38:48.833Z,9.719075
2022-09-28T04:39:29.808Z,9.719156
2022-09-28T04:40:27.826Z,9.719131
2022-09-28T04:41:27.783Z,9.719138
2022-09-28T04:42:27.781Z,9.719151
2022-09-28T04:43:27.774Z,9.719142
2022-09-28T04:44:27.756Z,9.719093
2022-09-28T04:45:27.800Z,9.719025
2022-09-28T04:46:27.737Z,9.719043
2022-09-28T04:47:27.734Z,9.719084
2022-09-28T04:48:27.730Z,9.719181
2022-09-28T04:49:27.707Z,9.719138
2022-09-28T04:50:27.692Z,9.719153
2022-09-28T04:51:27.689Z,9.719135
2022-09-28T04:52:27.692Z,9.719157
2022-09-28T04:53:27.666Z,9.719157
2022-09-28T04:54:27.664Z,9.719196
2022-09-28T04:55:27.649Z,9.719182
2022-09-28T04:56:27.650Z,9.719160
2022-09-28T04:57:27.648Z,9.719202
2022-09-28T04:58:27.635Z,9.719298
2022-09-28T04:59:27.630Z,9.719526
2022-09-28T05:00:27.600Z,9.719342
2022-09-28T05:01:27.719Z,9.719301
2022-09-28T05:02:27.642Z,9.719290
2022-09-28T05:03:27.578Z,9.719327
2022-09-28T05:04:27.596Z,9.719266
2022-09-28T05:05:27.559Z,9.719254
2022-09-28T05:06:27.553Z,9.719221
2022-09-28T05:07:27.551Z,9.719209
2022-09-28T05:08:27.523Z,9.719059
2022-09-28T05:09:27.520Z,9.719084
2022-09-28T05:10:27.534Z,9.719132
2022-09-28T05:11:27.490Z,9.719136
2022-09-28T05:12:27.483Z,9.719170
2022-09-28T05:13:27.486Z,9.719219
2022-09-28T05:14:27.469Z,9.719225
2022-09-28T05:15:27.482Z,9.719267
2022-09-28T05:16:27.459Z,9.719222
2022-09-28T05:17:27.429Z,9.719208
2022-09-28T05:18:27.426Z,9.719209
2022-09-28T05:19:27.431Z,9.719181
2022-09-28T05:20:27.414Z,9.719238
2022-09-28T05:21:27.418Z,9.719168
2022-09-28T05:22:27.402Z,9.719179
2022-09-28T05:23:27.385Z,9.719165
2022-09-28T05:24:27.378Z,9.719117
2022-09-28T05:25:27.360Z,9.719029
2022-09-28T05:26:27.387Z,9.719116
2022-09-28T05:27:27.348Z,9.719027
2022-09-28T05:28:27.335Z,9.719025
2022-09-28T05:29:31.424Z,9.718955
2022-09-28T05:30:28.331Z,9.718883
2022-09-28T05:31:27.360Z,9.718900
2022-09-28T05:32:28.318Z,9.718849
2022-09-28T05:33:27.292Z,9.718909
2022-09-28T05:34:27.292Z,9.718932
2022-09-28T05:35:27.281Z,9.719241
2022-09-28T05:36:27.260Z,9.719244
2022-09-28T05:37:27.239Z,9.719044
2022-09-28T05:38:27.244Z,9.718433
2022-09-28T05:39:27.227Z,9.718758
2022-09-28T05:40:27.255Z,9.718810
2022-09-28T05:41:27.206Z,9.718939
2022-09-28T05:42:27.201Z,9.719049
2022-09-28T05:43:27.198Z,9.719073
2022-09-28T05:44:27.166Z,9.718884
2022-09-28T05:45:27.241Z,9.718916
2022-09-28T05:46:27.217Z,9.718961
2022-09-28T05:47:27.140Z,9.719049
2022-09-28T05:48:27.157Z,9.719260
2022-09-28T05:49:27.139Z,9.718965
2022-09-28T05:50:27.122Z,9.718888
2022-09-28T05:51:27.142Z,9.719159
2022-09-28T05:52:27.101Z,9.719062
2022-09-28T05:53:27.075Z,9.719090
2022-09-28T05:54:27.084Z,9.719231
2022-09-28T05:55:27.135Z,9.719098
2022-09-28T05:56:27.060Z,9.718840
2022-09-28T05:57:27.048Z,9.718891
2022-09-28T05:58:27.041Z,9.719137
2022-09-28T05:59:27.037Z,9.719007
2022-09-28T06:00:27.041Z,9.718975
2022-09-28T06:01:27.147Z,9.719069
2022-09-28T06:02:27.065Z,9.719153
2022-09-28T06:03:26.988Z,9.719195
2022-09-28T06:04:26.973Z,9.719119
2022-09-28T06:05:26.991Z,9.719170
2022-09-28T06:06:26.959Z,9.719103
2022-09-28T06:07:26.966Z,9.719073
2022-09-28T06:08:26.955Z,9.719120
2022-09-28T06:09:26.924Z,9.719129
2022-09-28T06:10:26.924Z,9.719110
2022-09-28T06:11:26.944Z,9.719102
2022-09-28T06:12:26.928Z,9.719096
2022-09-28T06:13:26.911Z,9.719359
2022-09-28T06:14:26.881Z,9.719233
2022-09-28T06:15:26.872Z,9.719205
2022-09-28T06:16:26.899Z,9.719406
2022-09-28T06:17:26.853Z,9.719469
2022-09-28T06:18:26.871Z,9.719282
2022-09-28T06:19:26.825Z,9.719424
2022-09-28T06:20:26.817Z,9.719400
2022-09-28T06:21:26.819Z,9.719433
2022-09-28T06:22:26.795Z,9.719231
2022-09-28T06:23:26.788Z,9.719162
2022-09-28T06:24:27.785Z,9.719123
2022-09-28T06:25:26.761Z,9.719680
2022-09-28T06:26:27.774Z,9.719620
2022-09-28T06:27:26.746Z,9.719550
2022-09-28T06:28:26.761Z,9.719486
2022-09-28T06:29:26.753Z,9.719365
2022-09-28T06:30:26.751Z,9.719487
2022-09-28T06:31:27.715Z,9.719249
2022-09-28T06:32:26.710Z,9.719788
2022-09-28T06:33:26.698Z,9.719592
2022-09-28T06:34:26.706Z,9.719561
2022-09-28T06:35:26.672Z,9.719434
2022-09-28T06:36:26.655Z,9.719559
2022-09-28T06:37:26.649Z,9.719415
2022-09-28T06:38:26.650Z,9.719220
2022-09-28T06:39:26.628Z,9.719121
2022-09-28T06:40:26.683Z,9.719230
2022-09-28T06:41:26.634Z,9.719221
2022-09-28T06:42:26.605Z,9.719285
2022-09-28T06:43:28.906Z,9.719231
2022-09-28T06:44:26.586Z,9.719417
2022-09-28T06:45:27.571Z,9.719185
2022-09-28T06:46:26.631Z,9.719259
2022-09-28T06:47:26.558Z,9.719152
2022-09-28T06:48:26.551Z,9.719192
2022-09-28T06:49:26.537Z,9.719180
2022-09-28T06:50:26.531Z,9.719135
2022-09-28T06:51:26.534Z,9.719232
2022-09-28T06:52:26.502Z,9.719263
2022-09-28T06:53:26.493Z,9.719221
2022-09-28T06:54:26.506Z,9.719116
2022-09-28T06:55:26.472Z,9.719006
2022-09-28T06:56:29.432Z,9.719133
2022-09-28T06:57:28.459Z,9.719365
2022-09-28T06:58:26.441Z,9.719263
2022-09-28T06:59:26.430Z,9.719042
2022-09-28T07:00:26.510Z,9.719518
2022-09-28T07:01:26.480Z,9.719413
2022-09-28T07:02:26.466Z,9.719458
2022-09-28T07:03:26.394Z,9.719348
2022-09-28T07:04:26.385Z,9.719435
2022-09-28T07:05:26.384Z,9.719473
2022-09-28T07:06:26.372Z,9.719335
2022-09-28T07:07:26.377Z,9.719411
2022-09-28T07:08:26.363Z,9.719440
2022-09-28T07:09:32.812Z,9.719322
2022-09-28T07:10:28.339Z,9.719218
2022-09-28T07:11:26.324Z,9.719235
2022-09-28T07:12:26.317Z,9.719293
2022-09-28T07:13:52.704Z,9.719299
2022-09-28T07:14:46.249Z,9.719309
2022-09-28T07:15:28.284Z,9.719258
2022-09-28T07:16:29.837Z,9.719189
2022-09-28T07:17:27.352Z,9.719234
2022-09-28T07:18:26.293Z,9.719283
2022-09-28T07:19:26.240Z,9.719250
2022-09-28T07:20:26.285Z,9.719247
2022-09-28T07:21:30.399Z,9.719106
2022-09-28T07:22:40.165Z,9.719099
2022-09-28T07:23:28.236Z,9.719221
2022-09-28T07:24:26.194Z,9.719114
2022-09-28T07:25:26.185Z,9.719104
2022-09-28T07:26:26.182Z,9.719024
2022-09-28T07:27:28.925Z,9.719046
2022-09-28T07:28:27.167Z,9.719110
2022-09-28T07:29:26.147Z,9.719161
2022-09-28T07:30:26.210Z,9.719251
2022-09-28T07:31:26.130Z,9.719288
2022-09-28T07:32:26.139Z,9.719213
2022-09-28T07:33:26.112Z,9.719255
2022-09-28T07:34:26.096Z,9.719189
2022-09-28T07:35:26.095Z,9.719270
2022-09-28T07:36:26.099Z,9.719213
2022-09-28T07:37:26.069Z,9.719253
2022-09-28T07:38:26.082Z,9.719311
2022-09-28T07:39:26.041Z,9.719231
2022-09-28T07:40:26.148Z,9.719156
2022-09-28T07:41:26.040Z,9.719227
2022-09-28T07:42:26.014Z,9.719259
2022-09-28T07:43:26.011Z,9.719276
2022-09-28T07:44:25.998Z,9.719316
2022-09-28T07:45:25.979Z,9.719281
2022-09-28T07:46:26.124Z,9.719194
2022-09-28T07:47:28.594Z,9.719317
2022-09-28T07:48:26.967Z,9.719221
2022-09-28T07:49:25.951Z,9.719196
2022-09-28T07:50:25.933Z,9.719287
2022-09-28T07:51:25.951Z,9.719253
2022-09-28T07:52:25.917Z,9.719206
2022-09-28T07:53:25.906Z,9.719372
2022-09-28T07:54:25.900Z,9.719270
2022-09-28T07:55:25.895Z,9.719399
2022-09-28T07:56:25.899Z,9.719486
2022-09-28T07:57:25.866Z,9.719251
2022-09-28T07:58:25.851Z,9.719040
2022-09-28T07:59:25.852Z,9.719741
2022-09-28T08:00:25.839Z,9.719213
2022-09-28T08:01:25.892Z,9.719172
2022-09-28T08:02:25.928Z,9.719324
2022-09-28T08:03:25.810Z,9.719538
2022-09-28T08:04:25.800Z,9.719932
2022-09-28T08:05:25.795Z,9.719856
2022-09-28T08:06:25.806Z,9.719753
2022-09-28T08:07:25.771Z,9.720336
2022-09-28T08:08:57.674Z,9.720156
2022-09-28T08:09:25.750Z,9.719731
2022-09-28T08:10:25.753Z,9.719819
2022-09-28T08:11:25.731Z,9.719819
2022-09-28T08:12:25.756Z,9.719819
2022-09-28T08:13:26.976Z,9.719819
2022-09-28T08:14:26.737Z,9.719819
2022-09-28T08:15:25.702Z,9.719819
2022-09-28T08:16:25.755Z,9.719752
2022-09-28T08:17:25.708Z,9.719558
2022-09-28T08:18:25.684Z,9.719598
2022-09-28T08:19:25.654Z,9.719653
2022-09-28T08:20:25.649Z,9.719731
2022-09-28T08:21:25.668Z,9.719589
2022-09-28T08:22:25.632Z,9.719830
2022-09-28T08:23:25.642Z,9.719500
2022-09-28T08:24:25.609Z,9.719564
2022-09-28T08:25:25.597Z,9.719358
2022-09-28T08:26:25.584Z,9.719399
2022-09-28T08:27:25.561Z,9.719387
2022-09-28T08:28:26.587Z,9.719310
2022-09-28T08:29:25.601Z,9.719280
2022-09-28T08:30:25.589Z,9.719232
2022-09-28T08:31:25.539Z,9.719172
2022-09-28T08:32:25.528Z,9.719163
2022-09-28T08:33:25.536Z,9.719337
2022-09-28T08:34:25.507Z,9.719323
2022-09-28T08:35:25.488Z,9.719230
2022-09-28T08:36:25.508Z,9.719222
2022-09-28T08:37:25.474Z,9.719147
2022-09-28T08:38:25.459Z,9.719178
2022-09-28T08:39:25.465Z,9.719218
2022-09-28T08:40:25.499Z,9.719264
2022-09-28T08:41:25.454Z,9.719238
2022-09-28T08:42:25.428Z,9.719218
2022-09-28T08:43:25.412Z,9.719224
2022-09-28T08:44:25.416Z,9.719283
2022-09-28T08:45:25.398Z,9.719290
2022-09-28T08:46:27.124Z,9.719260
2022-09-28T08:47:25.380Z,9.719301
2022-09-28T08:48:25.383Z,9.719397
2022-09-28T08:49:26.403Z,9.719303
2022-09-28T08:50:26.342Z,9.719239
2022-09-28T08:51:25.348Z,9.719246
2022-09-28T08:52:25.341Z,9.719342
2022-09-28T08:53:25.312Z,9.719515
2022-09-28T08:54:25.299Z,9.719460
2022-09-28T08:55:25.302Z,9.719253
2022-09-28T08:56:25.280Z,9.719218
2022-09-28T08:57:25.288Z,9.719392
2022-09-28T08:58:25.259Z,9.719182
2022-09-28T08:59:25.258Z,9.719182
2022-09-28T09:00:25.267Z,9.718873
2022-09-28T09:01:25.270Z,9.719024
2022-09-28T09:02:25.328Z,9.719115
2022-09-28T09:03:25.216Z,9.719228
2022-09-28T09:04:25.209Z,9.719223
2022-09-28T09:05:25.207Z,9.719151
2022-09-28T09:06:25.189Z,9.719313
2022-09-28T09:07:25.184Z,9.719216
2022-09-28T09:08:25.169Z,9.719221
2022-09-28T09:09:25.146Z,9.719183
2022-09-28T09:10:25.165Z,9.719287
2022-09-28T09:11:25.127Z,9.719389
2022-09-28T09:12:25.156Z,9.719188
2022-09-28T09:13:25.136Z,9.719247
2022-09-28T09:14:25.111Z,9.719146
2022-09-28T09:15:25.113Z,9.719180
2022-09-28T09:16:25.133Z,9.719013
2022-09-28T09:17:25.114Z,9.719108
2022-09-28T09:18:25.074Z,9.719090
2022-09-28T09:19:25.064Z,9.719155
2022-09-28T09:20:25.071Z,9.718970
2022-09-28T09:21:25.038Z,9.719189
2022-09-28T09:22:25.047Z,9.719261
2022-09-28T09:23:25.036Z,9.719163
2022-09-28T09:24:25.020Z,9.719253
2022-09-28T09:25:25.001Z,9.719300
2022-09-28T09:26:26.270Z,9.719231
2022-09-28T09:27:26.009Z,9.719189
2022-09-28T09:28:24.970Z,9.719288
2022-09-28T09:29:24.964Z,9.719254
2022-09-28T09:30:27.165Z,9.719135
2022-09-28T09:31:24.986Z,9.719045
2022-09-28T09:32:24.950Z,9.719081
2022-09-28T09:33:24.925Z,9.718977
2022-09-28T09:34:24.931Z,9.719073
2022-09-28T09:35:29.279Z,9.719207
2022-09-28T09:36:25.893Z,9.718992
2022-09-28T09:37:24.881Z,9.719098
2022-09-28T09:38:24.885Z,9.719182
2022-09-28T09:39:24.890Z,9.719043
2022-09-28T09:40:24.958Z,9.718962
2022-09-28T09:41:24.865Z,9.719012
2022-09-28T09:42:24.836Z,9.719015
2022-09-28T09:43:28.025Z,9.719036
2022-09-28T09:44:24.844Z,9.719050
2022-09-28T09:45:24.807Z,9.719083
2022-09-28T09:46:24.834Z,9.719091
2022-09-28T09:47:25.788Z,9.719044
2022-09-28T09:48:24.772Z,9.719097
2022-09-28T09:49:24.764Z,9.719114
2022-09-28T09:50:24.777Z,9.719136
2022-09-28T09:51:24.766Z,9.719125
2022-09-28T09:52:24.804Z,9.719127
2022-09-28T09:53:24.750Z,9.719131
2022-09-28T09:54:24.722Z,9.719121
2022-09-28T09:55:29.661Z,9.719049
2022-09-28T09:56:25.697Z,9.719137
2022-09-28T09:57:24.688Z,9.718934
2022-09-28T09:58:24.687Z,9.719098
2022-09-28T09:59:24.682Z,9.719047
2022-09-28T10:00:24.680Z,9.719110
2022-09-28T10:01:24.739Z,9.719051
2022-09-28T10:02:24.722Z,9.719049
2022-09-28T10:03:24.626Z,9.719105
2022-09-28T10:04:24.626Z,9.719129
2022-09-28T10:05:24.614Z,9.719112
2022-09-28T10:06:24.635Z,9.719198
2022-09-28T10:07:24.602Z,9.719207
2022-09-28T10:08:24.602Z,9.719219
2022-09-28T10:09:24.576Z,9.719217
2022-09-28T10:10:24.563Z,9.719189
2022-09-28T10:11:24.559Z,9.719201
2022-09-28T10:12:24.545Z,9.719371
2022-09-28T10:13:24.566Z,9.719424
2022-09-28T10:14:24.530Z,9.719262
2022-09-28T10:15:24.523Z,9.719144
2022-09-28T10:16:24.543Z,9.719288
2022-09-28T10:17:24.495Z,9.719224
2022-09-28T10:18:24.500Z,9.719013
2022-09-28T10:19:24.480Z,9.719014
2022-09-28T10:20:24.483Z,9.719028
2022-09-28T10:21:24.452Z,9.719242
2022-09-28T10:22:24.446Z,9.719428
2022-09-28T10:23:24.465Z,9.719383
2022-09-28T10:24:24.434Z,9.719217
2022-09-28T10:25:24.416Z,9.719230
2022-09-28T10:26:25.268Z,9.719271
2022-09-28T10:27:24.406Z,9.719154
2022-09-28T10:28:24.390Z,9.719205
2022-09-28T10:29:24.380Z,9.719266
2022-09-28T10:30:24.381Z,9.719188
2022-09-28T10:31:24.365Z,9.719022
2022-09-28T10:32:24.352Z,9.718955
2022-09-28T10:33:24.343Z,9.718987
2022-09-28T10:34:24.349Z,9.719232
2022-09-28T10:35:24.339Z,9.719161
2022-09-28T10:36:24.303Z,9.719301
2022-09-28T10:37:24.307Z,9.719250
2022-09-28T10:38:24.289Z,9.719372
2022-09-28T10:39:24.281Z,9.719492
2022-09-28T10:40:24.344Z,9.719397
2022-09-28T10:41:24.260Z,9.719447
2022-09-28T10:42:24.260Z,9.719523
2022-09-28T10:43:24.240Z,9.719436
2022-09-28T10:44:24.230Z,9.719486
2022-09-28T10:45:24.232Z,9.719393
2022-09-28T10:46:24.270Z,9.719341
2022-09-28T10:47:24.208Z,9.719321
2022-09-28T10:48:24.190Z,9.719409
2022-09-28T10:49:24.190Z,9.719321
2022-09-28T10:50:24.179Z,9.719255
2022-09-28T10:51:24.156Z,9.719211
2022-09-28T10:52:24.201Z,9.719209
2022-09-28T10:53:24.175Z,9.719241
2022-09-28T10:54:24.133Z,9.719241
2022-09-28T10:55:24.121Z,9.719357
2022-09-28T10:56:24.115Z,9.719267
2022-09-28T10:57:24.106Z,9.719234
2022-09-28T10:58:24.123Z,9.719255
2022-09-28T10:59:24.095Z,9.719370
2022-09-28T11:00:24.076Z,9.719359
2022-09-28T11:01:24.091Z,9.719369
2022-09-28T11:02:24.074Z,9.719097
2022-09-28T11:03:24.036Z,9.719179
2022-09-28T11:04:24.043Z,9.719281
2022-09-28T11:05:24.027Z,9.719185
2022-09-28T11:06:24.012Z,9.719417
2022-09-28T11:07:23.995Z,9.719229
2022-09-28T11:08:23.990Z,9.719385
2022-09-28T11:09:27.087Z,9.719244
2022-09-28T11:10:24.979Z,9.719236
2022-09-28T11:11:23.963Z,9.719322
2022-09-28T11:12:23.959Z,9.719345
2022-09-28T11:13:23.948Z,9.719294
2022-09-28T11:14:23.955Z,9.719213
2022-09-28T11:15:23.930Z,9.719216
2022-09-28T11:16:23.964Z,9.719242
2022-09-28T11:17:23.897Z,9.719131
2022-09-28T11:18:23.886Z,9.719249
2022-09-28T11:19:23.903Z,9.719199
2022-09-28T11:20:27.522Z,9.719200
2022-09-28T11:21:24.861Z,9.719567
2022-09-28T11:22:23.855Z,9.719222
2022-09-28T11:23:23.859Z,9.719252
2022-09-28T11:24:24.030Z,9.719223
2022-09-28T11:25:23.825Z,9.719022
2022-09-28T11:26:23.807Z,9.719132
2022-09-28T11:27:23.829Z,9.719206
2022-09-28T11:28:23.813Z,9.719359
2022-09-28T11:29:23.783Z,9.719153
2022-09-28T11:30:23.848Z,9.719168
2022-09-28T11:31:23.757Z,9.719316
2022-09-28T11:32:23.766Z,9.719419
2022-09-28T11:33:23.767Z,9.719382
2022-09-28T11:34:36.194Z,9.719177
2022-09-28T11:35:25.728Z,9.719303
2022-09-28T11:36:23.716Z,9.719241
2022-09-28T11:37:23.702Z,9.719377
2022-09-28T11:38:23.714Z,9.719398
2022-09-28T11:39:23.676Z,9.719280
2022-09-28T11:40:23.752Z,9.719203
2022-09-28T11:41:23.668Z,9.719445
2022-09-28T11:42:23.644Z,9.719545
2022-09-28T11:43:23.638Z,9.719558
2022-09-28T11:44:23.645Z,9.719396